sensor_id;sensor_type;location;lat;lon;timestamp;pressure;altitude;pressure_sealevel;temperature;humidity
45467;BME280;31212;49.734;8.490;2023-04-06T00:02:09;100685.28;;;0.05;71.40
45467;BME280;31212;49.734;8.490;2023-04-06T00:04:36;100700.97;;;-0.04;71.77
45467;BME280;31212;49.734;8.490;2023-04-06T00:07:02;100697.72;;;-0.02;71.37
45467;BME280;31212;49.734;8.490;2023-04-06T00:09:29;100688.00;;;-0.09;71.52
45467;BME280;31212;49.734;8.490;2023-04-06T00:11:57;100687.44;;;-0.03;71.41
45467;BME280;31212;49.734;8.490;2023-04-06T00:14:23;100682.16;;;0.10;71.44
45467;BME280;31212;49.734;8.490;2023-04-06T00:16:50;100705.72;;;0.39;71.41
45467;BME280;31212;49.734;8.490;2023-04-06T00:19:16;100688.47;;;0.53;71.02
45467;BME280;31212;49.734;8.490;2023-04-06T00:21:43;100664.59;;;0.53;71.20
45467;BME280;31212;49.734;8.490;2023-04-06T00:24:09;100659.06;;;0.61;70.78
45467;BME280;31212;49.734;8.490;2023-04-06T00:26:36;100660.31;;;0.70;70.51
45467;BME280;31212;49.734;8.490;2023-04-06T00:29:04;100631.75;;;0.78;70.10
45467;BME280;31212;49.734;8.490;2023-04-06T00:31:30;100644.44;;;0.77;70.31
45467;BME280;31212;49.734;8.490;2023-04-06T00:33:57;100657.16;;;0.75;70.49
45467;BME280;31212;49.734;8.490;2023-04-06T00:36:24;100650.22;;;0.73;70.40
45467;BME280;31212;49.734;8.490;2023-04-06T00:38:51;100630.16;;;0.62;70.29
45467;BME280;31212;49.734;8.490;2023-04-06T00:41:18;100613.38;;;0.49;70.39
45467;BME280;31212;49.734;8.490;2023-04-06T00:43:45;100626.88;;;0.47;70.47
45467;BME280;31212;49.734;8.490;2023-04-06T00:46:13;100628.06;;;0.36;70.83
45467;BME280;31212;49.734;8.490;2023-04-06T00:48:40;100642.53;;;0.19;71.18
45467;BME280;31212;49.734;8.490;2023-04-06T00:51:06;100638.28;;;0.01;71.54
45467;BME280;31212;49.734;8.490;2023-04-06T00:53:33;100666.53;;;0.04;72.03
45467;BME280;31212;49.734;8.490;2023-04-06T00:56:00;100654.19;;;-0.05;72.12
45467;BME280;31212;49.734;8.490;2023-04-06T00:58:33;100655.34;;;-0.16;72.20
45467;BME280;31212;49.734;8.490;2023-04-06T01:01:05;100692.50;;;-0.21;72.97
45467;BME280;31212;49.734;8.490;2023-04-06T01:03:35;100717.09;;;-0.22;73.76
45467;BME280;31212;49.734;8.490;2023-04-06T01:06:02;100749.50;;;-0.21;74.59
45467;BME280;31212;49.734;8.490;2023-04-06T01:08:34;100758.50;;;-0.27;74.86
45467;BME280;31212;49.734;8.490;2023-04-06T01:11:28;100745.50;;;-0.32;74.71
45467;BME280;31212;49.734;8.490;2023-04-06T01:13:55;100743.19;;;-0.44;74.95
45467;BME280;31212;49.734;8.490;2023-04-06T01:16:48;100757.22;;;-0.36;75.42
45467;BME280;31212;49.734;8.490;2023-04-06T01:19:19;100754.38;;;-0.42;75.36
45467;BME280;31212;49.734;8.490;2023-04-06T01:21:51;100739.22;;;-0.39;75.66
45467;BME280;31212;49.734;8.490;2023-04-06T01:24:31;100736.88;;;-0.34;75.39
45467;BME280;31212;49.734;8.490;2023-04-06T01:27:17;100743.97;;;-0.45;75.66
45467;BME280;31212;49.734;8.490;2023-04-06T01:29:58;100733.06;;;-0.42;75.87
45467;BME280;31212;49.734;8.490;2023-04-06T01:32:54;100733.13;;;-0.41;75.91
45467;BME280;31212;49.734;8.490;2023-04-06T01:35:31;100737.59;;;-0.53;76.86
45467;BME280;31212;49.734;8.490;2023-04-06T01:38:09;100752.09;;;-0.69;77.12
45467;BME280;31212;49.734;8.490;2023-04-06T01:40:37;100760.19;;;-0.76;77.48
45467;BME280;31212;49.734;8.490;2023-04-06T01:43:05;100761.69;;;-0.79;77.88
45467;BME280;31212;49.734;8.490;2023-04-06T01:45:38;100765.28;;;-0.76;78.13
45467;BME280;31212;49.734;8.490;2023-04-06T01:48:16;100768.44;;;-0.80;78.41
45467;BME280;31212;49.734;8.490;2023-04-06T01:50:43;100751.78;;;-0.90;78.53
45467;BME280;31212;49.734;8.490;2023-04-06T01:53:13;100758.13;;;-0.98;78.67
45467;BME280;31212;49.734;8.490;2023-04-06T01:55:43;100751.34;;;-0.97;78.73
45467;BME280;31212;49.734;8.490;2023-04-06T01:58:18;100746.66;;;-1.06;78.90
45467;BME280;31212;49.734;8.490;2023-04-06T02:00:45;100748.28;;;-1.07;78.44
45467;BME280;31212;49.734;8.490;2023-04-06T02:03:12;100736.19;;;-1.26;78.51
45467;BME280;31212;49.734;8.490;2023-04-06T02:05:39;100736.31;;;-1.39;78.96
45467;BME280;31212;49.734;8.490;2023-04-06T02:08:22;100739.31;;;-1.46;79.30
45467;BME280;31212;49.734;8.490;2023-04-06T02:10:50;100733.88;;;-1.38;78.54
45467;BME280;31212;49.734;8.490;2023-04-06T02:13:25;100729.88;;;-1.32;78.44
45467;BME280;31212;49.734;8.490;2023-04-06T02:15:53;100728.78;;;-1.38;78.46
45467;BME280;31212;49.734;8.490;2023-04-06T02:18:20;100730.69;;;-1.33;79.10
45467;BME280;31212;49.734;8.490;2023-04-06T02:20:47;100727.25;;;-1.34;78.67
45467;BME280;31212;49.734;8.490;2023-04-06T02:23:14;100738.84;;;-1.39;78.66
45467;BME280;31212;49.734;8.490;2023-04-06T02:25:40;100741.31;;;-1.41;79.23
45467;BME280;31212;49.734;8.490;2023-04-06T02:28:09;100741.75;;;-1.48;79.57
45467;BME280;31212;49.734;8.490;2023-04-06T02:30:35;100746.78;;;-1.49;79.45
45467;BME280;31212;49.734;8.490;2023-04-06T02:33:03;100749.56;;;-1.45;79.94
45467;BME280;31212;49.734;8.490;2023-04-06T02:35:38;100743.00;;;-1.41;79.74
45467;BME280;31212;49.734;8.490;2023-04-06T02:38:04;100740.44;;;-1.41;79.38
45467;BME280;31212;49.734;8.490;2023-04-06T02:40:31;100716.13;;;-1.36;79.32
45467;BME280;31212;49.734;8.490;2023-04-06T02:43:05;100694.69;;;-1.40;78.71
45467;BME280;31212;49.734;8.490;2023-04-06T02:45:33;100698.56;;;-1.46;78.25
45467;BME280;31212;49.734;8.490;2023-04-06T02:48:01;100692.41;;;-1.50;78.82
45467;BME280;31212;49.734;8.490;2023-04-06T02:50:29;100703.41;;;-1.51;78.66
45467;BME280;31212;49.734;8.490;2023-04-06T02:53:00;100710.34;;;-1.48;79.26
45467;BME280;31212;49.734;8.490;2023-04-06T02:55:26;100718.31;;;-1.42;78.96
45467;BME280;31212;49.734;8.490;2023-04-06T02:57:53;100720.06;;;-1.41;79.43
45467;BME280;31212;49.734;8.490;2023-04-06T03:00:25;100716.56;;;-1.43;79.13
45467;BME280;31212;49.734;8.490;2023-04-06T03:02:53;100702.44;;;-1.53;79.57
45467;BME280;31212;49.734;8.490;2023-04-06T03:05:20;100712.97;;;-1.47;78.98
45467;BME280;31212;49.734;8.490;2023-04-06T03:07:47;100723.66;;;-1.53;79.46
45467;BME280;31212;49.734;8.490;2023-04-06T03:10:22;100732.03;;;-1.55;79.88
45467;BME280;31212;49.734;8.490;2023-04-06T03:12:48;100735.63;;;-1.52;80.11
45467;BME280;31212;49.734;8.490;2023-04-06T03:15:19;100743.88;;;-1.71;80.67
45467;BME280;31212;49.734;8.490;2023-04-06T03:17:50;100749.81;;;-1.70;80.80
45467;BME280;31212;49.734;8.490;2023-04-06T03:20:35;100762.91;;;-1.64;81.11
45467;BME280;31212;49.734;8.490;2023-04-06T03:23:02;100752.38;;;-1.70;81.37
45467;BME280;31212;49.734;8.490;2023-04-06T03:25:33;100749.81;;;-1.70;80.80
45467;BME280;31212;49.734;8.490;2023-04-06T03:28:03;100748.78;;;-1.74;81.46
45467;BME280;31212;49.734;8.490;2023-04-06T03:30:33;100742.28;;;-1.83;80.79
45467;BME280;31212;49.734;8.490;2023-04-06T03:33:00;100744.91;;;-1.97;81.17
45467;BME280;31212;49.734;8.490;2023-04-06T03:35:31;100762.69;;;-2.12;81.75
45467;BME280;31212;49.734;8.490;2023-04-06T03:37:59;100769.06;;;-2.18;82.22
45467;BME280;31212;49.734;8.490;2023-04-06T03:40:26;100793.97;;;-2.13;82.54
45467;BME280;31212;49.734;8.490;2023-04-06T03:42:53;100804.66;;;-2.18;83.47
45467;BME280;31212;49.734;8.490;2023-04-06T03:45:19;100801.63;;;-2.13;83.09
45467;BME280;31212;49.734;8.490;2023-04-06T03:47:49;100796.53;;;-2.13;83.20
45467;BME280;31212;49.734;8.490;2023-04-06T03:50:16;100797.91;;;-2.18;82.83
45467;BME280;31212;49.734;8.490;2023-04-06T03:52:43;100795.88;;;-2.24;82.94
45467;BME280;31212;49.734;8.490;2023-04-06T03:55:12;100794.53;;;-2.32;83.55
45467;BME280;31212;49.734;8.490;2023-04-06T03:57:38;100811.84;;;-2.40;84.24
45467;BME280;31212;49.734;8.490;2023-04-06T04:00:06;100813.53;;;-2.40;83.83
45467;BME280;31212;49.734;8.490;2023-04-06T04:02:38;100822.81;;;-2.41;84.04
45467;BME280;31212;49.734;8.490;2023-04-06T04:05:06;100819.31;;;-2.43;84.53
45467;BME280;31212;49.734;8.490;2023-04-06T04:07:32;100820.56;;;-2.36;84.03
45467;BME280;31212;49.734;8.490;2023-04-06T04:09:59;100818.28;;;-2.31;84.38
45467;BME280;31212;49.734;8.490;2023-04-06T04:12:27;100824.06;;;-2.34;83.96
45467;BME280;31212;49.734;8.490;2023-04-06T04:14:55;100824.97;;;-2.33;84.54
45467;BME280;31212;49.734;8.490;2023-04-06T04:17:22;100821.34;;;-2.37;84.38
45467;BME280;31212;49.734;8.490;2023-04-06T04:19:50;100822.13;;;-2.38;84.76
45467;BME280;31212;49.734;8.490;2023-04-06T04:22:17;100832.47;;;-2.35;84.29
45467;BME280;31212;49.734;8.490;2023-04-06T04:24:43;100817.41;;;-2.32;84.33
45467;BME280;31212;49.734;8.490;2023-04-06T04:27:10;100812.19;;;-2.20;83.94
45467;BME280;31212;49.734;8.490;2023-04-06T04:29:39;100807.00;;;-2.22;83.88
45467;BME280;31212;49.734;8.490;2023-04-06T04:32:09;100798.78;;;-2.17;83.76
45467;BME280;31212;49.734;8.490;2023-04-06T04:34:37;100790.88;;;-2.22;83.98
45467;BME280;31212;49.734;8.490;2023-04-06T04:37:06;100801.13;;;-2.21;83.70
45467;BME280;31212;49.734;8.490;2023-04-06T04:39:54;100800.97;;;-2.24;84.00
45467;BME280;31212;49.734;8.490;2023-04-06T04:42:21;100798.69;;;-2.19;84.08
45467;BME280;31212;49.734;8.490;2023-04-06T04:44:52;100804.38;;;-2.23;83.90
45467;BME280;31212;49.734;8.490;2023-04-06T04:47:31;100801.91;;;-2.22;83.61
45467;BME280;31212;49.734;8.490;2023-04-06T04:49:58;100803.72;;;-2.06;84.00
45467;BME280;31212;49.734;8.490;2023-04-06T04:52:25;100786.91;;;-2.04;83.44
45467;BME280;31212;49.734;8.490;2023-04-06T04:55:09;100787.59;;;-2.06;83.12
45467;BME280;31212;49.734;8.490;2023-04-06T04:57:36;100789.72;;;-1.99;83.36
45467;BME280;31212;49.734;8.490;2023-04-06T05:00:07;100780.69;;;-1.94;82.96
45467;BME280;31212;49.734;8.490;2023-04-06T05:02:36;100779.09;;;-1.92;82.72
45467;BME280;31212;49.734;8.490;2023-04-06T05:05:11;100772.59;;;-2.01;82.68
45467;BME280;31212;49.734;8.490;2023-04-06T05:07:39;100767.16;;;-2.08;82.76
45467;BME280;31212;49.734;8.490;2023-04-06T05:10:09;100775.75;;;-2.06;82.76
45467;BME280;31212;49.734;8.490;2023-04-06T05:12:46;100780.41;;;-1.98;82.29
45467;BME280;31212;49.734;8.490;2023-04-06T05:15:14;100784.09;;;-1.93;82.90
45467;BME280;31212;49.734;8.490;2023-04-06T05:17:41;100779.72;;;-1.81;82.46
45467;BME280;31212;49.734;8.490;2023-04-06T05:20:11;100768.53;;;-1.84;81.70
45467;BME280;31212;49.734;8.490;2023-04-06T05:22:44;100764.38;;;-1.82;81.85
45467;BME280;31212;49.734;8.490;2023-04-06T05:25:11;100762.09;;;-1.93;81.66
45467;BME280;31212;49.734;8.490;2023-04-06T05:27:41;100761.22;;;-1.93;81.58
45467;BME280;31212;49.734;8.490;2023-04-06T05:30:24;100763.50;;;-1.98;81.85
45467;BME280;31212;49.734;8.490;2023-04-06T05:32:51;100778.94;;;-1.95;82.31
45467;BME280;31212;49.734;8.490;2023-04-06T05:35:19;100786.75;;;-1.92;82.48
45467;BME280;31212;49.734;8.490;2023-04-06T05:37:50;100788.28;;;-1.80;82.11
45467;BME280;31212;49.734;8.490;2023-04-06T05:40:20;100793.53;;;-1.77;82.25
45467;BME280;31212;49.734;8.490;2023-04-06T05:42:46;100800.16;;;-1.66;82.51
45467;BME280;31212;49.734;8.490;2023-04-06T05:45:15;100798.94;;;-1.58;82.01
45467;BME280;31212;49.734;8.490;2023-04-06T05:47:50;100789.97;;;-1.51;81.77
45467;BME280;31212;49.734;8.490;2023-04-06T05:50:22;100792.78;;;-1.46;81.81
45467;BME280;31212;49.734;8.490;2023-04-06T05:52:51;100792.94;;;-1.28;81.87
45467;BME280;31212;49.734;8.490;2023-04-06T05:55:20;100793.28;;;-1.07;81.35
45467;BME280;31212;49.734;8.490;2023-04-06T05:57:54;100783.03;;;-0.77;80.90
45467;BME280;31212;49.734;8.490;2023-04-06T06:00:21;100766.41;;;-0.23;80.34
45467;BME280;31212;49.734;8.490;2023-04-06T06:02:58;100740.81;;;0.27;79.24
45467;BME280;31212;49.734;8.490;2023-04-06T06:05:28;100696.72;;;0.65;77.80
45467;BME280;31212;49.734;8.490;2023-04-06T06:07:59;100656.09;;;1.08;76.39
45467;BME280;31212;49.734;8.490;2023-04-06T06:10:28;100604.88;;;1.65;74.53
45467;BME280;31212;49.734;8.490;2023-04-06T06:12:55;100547.59;;;2.05;72.90
45467;BME280;31212;49.734;8.490;2023-04-06T06:15:22;100468.06;;;2.23;71.03
45467;BME280;31212;49.734;8.490;2023-04-06T06:17:48;100413.16;;;2.63;70.04
45467;BME280;31212;49.734;8.490;2023-04-06T06:20:17;100350.56;;;3.08;68.00
45467;BME280;31212;49.734;8.490;2023-04-06T06:22:44;100292.69;;;3.74;65.88
45467;BME280;31212;49.734;8.490;2023-04-06T06:25:16;100252.41;;;4.70;64.45
45467;BME280;31212;49.734;8.490;2023-04-06T06:27:45;100161.16;;;5.32;61.61
45467;BME280;31212;49.734;8.490;2023-04-06T06:30:12;100088.97;;;6.22;59.33
45467;BME280;31212;49.734;8.490;2023-04-06T06:32:41;100029.84;;;7.01;57.41
45467;BME280;31212;49.734;8.490;2023-04-06T06:35:08;99980.13;;;7.19;56.22
45467;BME280;31212;49.734;8.490;2023-04-06T06:37:36;99910.22;;;6.99;54.91
45467;BME280;31212;49.734;8.490;2023-04-06T06:40:05;99948.47;;;7.37;55.55
45467;BME280;31212;49.734;8.490;2023-04-06T06:42:34;99891.97;;;7.83;53.91
45467;BME280;31212;49.734;8.490;2023-04-06T06:45:10;99884.56;;;8.71;52.50
45467;BME280;31212;49.734;8.490;2023-04-06T06:47:37;99756.88;;;8.46;50.78
45467;BME280;31212;49.734;8.490;2023-04-06T06:50:04;99737.00;;;9.27;49.20
45467;BME280;31212;49.734;8.490;2023-04-06T06:52:31;99674.66;;;9.70;48.08
45467;BME280;31212;49.734;8.490;2023-04-06T06:55:00;99736.88;;;9.67;48.16
45467;BME280;31212;49.734;8.490;2023-04-06T06:57:27;99736.47;;;10.44;47.40
45467;BME280;31212;49.734;8.490;2023-04-06T06:59:54;99634.09;;;10.78;45.51
45467;BME280;31212;49.734;8.490;2023-04-06T07:02:21;99579.97;;;10.41;44.70
45467;BME280;31212;49.734;8.490;2023-04-06T07:04:47;99547.22;;;10.21;44.52
45467;BME280;31212;49.734;8.490;2023-04-06T07:07:14;99594.56;;;10.53;44.31
45467;BME280;31212;49.734;8.490;2023-04-06T07:09:41;99622.75;;;10.87;44.97
45467;BME280;31212;49.734;8.490;2023-04-06T07:12:09;99632.75;;;11.21;43.67
45467;BME280;31212;49.734;8.490;2023-04-06T07:14:35;99567.06;;;11.11;43.71
45467;BME280;31212;49.734;8.490;2023-04-06T07:17:02;99578.47;;;11.63;42.49
45467;BME280;31212;49.734;8.490;2023-04-06T07:19:29;99521.69;;;11.37;42.62
45467;BME280;31212;49.734;8.490;2023-04-06T07:21:56;99579.59;;;11.47;42.69
45467;BME280;31212;49.734;8.490;2023-04-06T07:24:22;99609.97;;;12.04;42.55
45467;BME280;31212;49.734;8.490;2023-04-06T07:26:49;99500.06;;;11.33;41.71
45467;BME280;31212;49.734;8.490;2023-04-06T07:29:17;99529.50;;;11.35;42.83
45467;BME280;31212;49.734;8.490;2023-04-06T07:31:44;99593.91;;;11.74;42.40
45467;BME280;31212;49.734;8.490;2023-04-06T07:34:11;99618.91;;;12.42;41.75
45467;BME280;31212;49.734;8.490;2023-04-06T07:36:38;99566.13;;;12.34;41.62
45467;BME280;31212;49.734;8.490;2023-04-06T07:39:05;99598.31;;;12.76;41.29
45467;BME280;31212;49.734;8.490;2023-04-06T07:41:33;99535.41;;;12.96;40.87
45467;BME280;31212;49.734;8.490;2023-04-06T07:44:00;99549.50;;;13.28;40.42
45467;BME280;31212;49.734;8.490;2023-04-06T07:46:28;99467.28;;;13.87;38.72
45467;BME280;31212;49.734;8.490;2023-04-06T07:48:56;99413.78;;;13.38;38.26
45467;BME280;31212;49.734;8.490;2023-04-06T07:51:22;99392.97;;;14.02;37.62
45467;BME280;31212;49.734;8.490;2023-04-06T07:53:50;99386.09;;;14.00;37.35
45467;BME280;31212;49.734;8.490;2023-04-06T07:56:16;99387.78;;;14.01;37.56
45467;BME280;31212;49.734;8.490;2023-04-06T07:58:43;99434.59;;;14.70;37.20
45467;BME280;31212;49.734;8.490;2023-04-06T08:01:09;99373.56;;;14.42;36.47
45467;BME280;31212;49.734;8.490;2023-04-06T08:03:37;99365.94;;;14.36;36.62
45467;BME280;31212;49.734;8.490;2023-04-06T08:06:04;99329.81;;;14.51;35.97
45467;BME280;31212;49.734;8.490;2023-04-06T08:08:31;99349.06;;;14.76;35.92
45467;BME280;31212;49.734;8.490;2023-04-06T08:10:58;99373.53;;;14.44;36.47
45467;BME280;31212;49.734;8.490;2023-04-06T08:13:24;99351.94;;;14.07;36.30
45467;BME280;31212;49.734;8.490;2023-04-06T08:15:51;99338.56;;;15.06;35.11
45467;BME280;31212;49.734;8.490;2023-04-06T08:18:18;99391.28;;;15.19;35.76
45467;BME280;31212;49.734;8.490;2023-04-06T08:20:46;99317.91;;;15.25;34.40
45467;BME280;31212;49.734;8.490;2023-04-06T08:23:13;99310.94;;;15.75;34.28
45467;BME280;31212;49.734;8.490;2023-04-06T08:25:41;99312.25;;;15.38;34.21
45467;BME280;31212;49.734;8.490;2023-04-06T08:28:08;99346.41;;;15.58;34.62
45467;BME280;31212;49.734;8.490;2023-04-06T08:30:35;99356.94;;;15.57;34.47
45467;BME280;31212;49.734;8.490;2023-04-06T08:33:02;99288.22;;;16.01;33.13
45467;BME280;31212;49.734;8.490;2023-04-06T08:35:29;99329.50;;;16.63;33.33
45467;BME280;31212;49.734;8.490;2023-04-06T08:37:57;99252.75;;;16.82;32.00
45467;BME280;31212;49.734;8.490;2023-04-06T08:40:23;99263.06;;;17.09;31.91
45467;BME280;31212;49.734;8.490;2023-04-06T08:42:54;99251.75;;;17.07;32.08
45467;BME280;31212;49.734;8.490;2023-04-06T08:45:21;99234.75;;;17.76;31.27
45467;BME280;31212;49.734;8.490;2023-04-06T08:47:48;99178.28;;;17.86;30.51
45467;BME280;31212;49.734;8.490;2023-04-06T08:50:17;99166.22;;;17.44;30.68
45467;BME280;31212;49.734;8.490;2023-04-06T08:52:46;99187.56;;;17.55;30.56
45467;BME280;31212;49.734;8.490;2023-04-06T08:55:15;99212.50;;;17.65;30.71
45467;BME280;31212;49.734;8.490;2023-04-06T08:57:42;99204.41;;;18.08;30.11
45467;BME280;31212;49.734;8.490;2023-04-06T09:00:10;99183.13;;;17.57;30.34
45467;BME280;31212;49.734;8.490;2023-04-06T09:02:39;99179.56;;;18.52;29.35
45467;BME280;31212;49.734;8.490;2023-04-06T09:05:07;99146.41;;;18.49;29.12
45467;BME280;31212;49.734;8.490;2023-04-06T09:07:35;99196.34;;;17.94;29.77
45467;BME280;31212;49.734;8.490;2023-04-06T09:10:02;99239.53;;;19.15;29.21
45467;BME280;31212;49.734;8.490;2023-04-06T09:12:31;99182.56;;;18.79;29.12
45467;BME280;31212;49.734;8.490;2023-04-06T09:14:59;99116.31;;;18.73;28.70
45467;BME280;31212;49.734;8.490;2023-04-06T09:17:27;99174.25;;;19.06;28.43
45467;BME280;31212;49.734;8.490;2023-04-06T09:19:54;99175.63;;;19.13;28.54
45467;BME280;31212;49.734;8.490;2023-04-06T09:22:21;99113.44;;;19.28;27.59
45467;BME280;31212;49.734;8.490;2023-04-06T09:24:50;99104.41;;;18.83;28.04
45467;BME280;31212;49.734;8.490;2023-04-06T09:27:17;99141.28;;;19.16;27.72
45467;BME280;31212;49.734;8.490;2023-04-06T09:29:45;99129.91;;;19.32;27.77
45467;BME280;31212;49.734;8.490;2023-04-06T09:32:11;99188.78;;;19.96;27.75
45467;BME280;31212;49.734;8.490;2023-04-06T09:34:42;99143.06;;;19.97;27.09
45467;BME280;31212;49.734;8.490;2023-04-06T09:37:15;99101.78;;;20.28;26.82
45467;BME280;31212;49.734;8.490;2023-04-06T09:39:41;99072.09;;;19.78;26.86
45467;BME280;31212;49.734;8.490;2023-04-06T09:42:08;99160.13;;;20.22;27.32
45467;BME280;31212;49.734;8.490;2023-04-06T09:44:34;99135.97;;;21.05;26.22
45467;BME280;31212;49.734;8.490;2023-04-06T09:47:06;99109.91;;;20.70;26.33
45467;BME280;31212;49.734;8.490;2023-04-06T09:49:33;99084.06;;;20.61;26.51
45467;BME280;31212;49.734;8.490;2023-04-06T09:52:02;99033.34;;;20.27;26.16
45467;BME280;31212;49.734;8.490;2023-04-06T09:54:30;99104.19;;;20.17;26.78
45467;BME280;31212;49.734;8.490;2023-04-06T09:57:02;99127.59;;;20.38;26.68
45467;BME280;31212;49.734;8.490;2023-04-06T09:59:38;99148.44;;;20.42;26.88
45467;BME280;31212;49.734;8.490;2023-04-06T10:02:13;99090.72;;;19.91;26.87
45467;BME280;31212;49.734;8.490;2023-04-06T10:04:43;99035.00;;;20.44;25.69
45467;BME280;31212;49.734;8.490;2023-04-06T10:07:11;99150.09;;;20.29;26.97
45467;BME280;31212;49.734;8.490;2023-04-06T10:09:41;99124.81;;;20.41;26.80
45467;BME280;31212;49.734;8.490;2023-04-06T10:12:12;99032.00;;;20.64;25.38
45467;BME280;31212;49.734;8.490;2023-04-06T10:14:39;99165.03;;;21.63;25.91
45467;BME280;31212;49.734;8.490;2023-04-06T10:17:07;99005.50;;;21.65;24.51
45467;BME280;31212;49.734;8.490;2023-04-06T10:19:39;98965.72;;;21.27;24.46
45467;BME280;31212;49.734;8.490;2023-04-06T10:22:08;98944.44;;;20.74;24.64
45467;BME280;31212;49.734;8.490;2023-04-06T10:24:36;99080.75;;;20.73;25.80
45467;BME280;31212;49.734;8.490;2023-04-06T10:27:03;99061.41;;;21.30;25.22
45467;BME280;31212;49.734;8.490;2023-04-06T10:29:42;99150.97;;;21.05;26.17
45467;BME280;31212;49.734;8.490;2023-04-06T10:32:10;98989.78;;;20.50;25.31
45467;BME280;31212;49.734;8.490;2023-04-06T10:34:37;99138.34;;;20.65;26.42
45467;BME280;31212;49.734;8.490;2023-04-06T10:37:11;98959.06;;;19.75;25.37
45467;BME280;31212;49.734;8.490;2023-04-06T10:39:45;99008.50;;;19.70;25.94
45467;BME280;31212;49.734;8.490;2023-04-06T10:42:12;99120.34;;;20.11;26.76
45467;BME280;31212;49.734;8.490;2023-04-06T10:44:42;99069.06;;;20.47;25.77
45467;BME280;31212;49.734;8.490;2023-04-06T10:47:17;99129.63;;;20.79;25.83
45467;BME280;31212;49.734;8.490;2023-04-06T10:49:44;99133.97;;;21.38;25.59
45467;BME280;31212;49.734;8.490;2023-04-06T10:52:10;99039.03;;;20.80;25.28
45467;BME280;31212;49.734;8.490;2023-04-06T10:54:41;99059.97;;;20.67;25.80
45467;BME280;31212;49.734;8.490;2023-04-06T10:57:08;99075.41;;;20.59;25.65
45467;BME280;31212;49.734;8.490;2023-04-06T10:59:35;98998.50;;;20.95;24.85
45467;BME280;31212;49.734;8.490;2023-04-06T11:02:01;98982.59;;;21.24;24.18
45467;BME280;31212;49.734;8.490;2023-04-06T11:04:29;99011.53;;;21.95;23.99
45467;BME280;31212;49.734;8.490;2023-04-06T11:06:56;98888.25;;;21.00;23.96
45467;BME280;31212;49.734;8.490;2023-04-06T11:09:24;98843.44;;;20.30;24.04
45467;BME280;31212;49.734;8.490;2023-04-06T11:11:52;98899.31;;;19.15;25.33
45467;BME280;31212;49.734;8.490;2023-04-06T11:14:19;98926.97;;;19.99;24.74
45467;BME280;31212;49.734;8.490;2023-04-06T11:16:46;98945.44;;;20.13;24.43
45467;BME280;31212;49.734;8.490;2023-04-06T11:19:13;98909.88;;;20.06;24.38
45467;BME280;31212;49.734;8.490;2023-04-06T11:21:43;98942.69;;;19.54;25.40
45467;BME280;31212;49.734;8.490;2023-04-06T11:24:14;98901.94;;;19.15;25.29
45467;BME280;31212;49.734;8.490;2023-04-06T11:26:42;98984.88;;;19.22;25.95
45467;BME280;31212;49.734;8.490;2023-04-06T11:29:10;98996.69;;;18.48;26.75
45467;BME280;31212;49.734;8.490;2023-04-06T11:31:39;98923.59;;;18.39;26.23
45467;BME280;31212;49.734;8.490;2023-04-06T11:34:10;98975.31;;;18.21;26.34
45467;BME280;31212;49.734;8.490;2023-04-06T11:36:39;99037.66;;;17.99;27.55
45467;BME280;31212;49.734;8.490;2023-04-06T11:39:08;99013.31;;;18.31;26.82
45467;BME280;31212;49.734;8.490;2023-04-06T11:41:34;98976.22;;;18.71;26.27
45467;BME280;31212;49.734;8.490;2023-04-06T11:44:01;99026.34;;;18.50;26.79
45467;BME280;31212;49.734;8.490;2023-04-06T11:46:28;98973.50;;;17.69;27.08
45467;BME280;31212;49.734;8.490;2023-04-06T11:48:57;99027.19;;;17.80;27.35
45467;BME280;31212;49.734;8.490;2023-04-06T11:51:24;99046.72;;;17.56;27.68
45467;BME280;31212;49.734;8.490;2023-04-06T11:53:51;99191.66;;;18.01;28.57
45467;BME280;31212;49.734;8.490;2023-04-06T11:56:26;99114.41;;;18.59;27.35
45467;BME280;31212;49.734;8.490;2023-04-06T11:58:57;98978.72;;;18.23;26.56
45467;BME280;31212;49.734;8.490;2023-04-06T12:01:25;99011.66;;;17.39;27.66
45467;BME280;31212;49.734;8.490;2023-04-06T12:03:52;99046.09;;;16.93;28.01
45467;BME280;31212;49.734;8.490;2023-04-06T12:06:19;99051.75;;;16.63;28.59
45467;BME280;31212;49.734;8.490;2023-04-06T12:08:45;99130.94;;;16.70;29.28
45467;BME280;31212;49.734;8.490;2023-04-06T12:11:12;99106.75;;;16.84;28.51
45467;BME280;31212;49.734;8.490;2023-04-06T12:13:40;99110.47;;;17.01;28.37
45467;BME280;31212;49.734;8.490;2023-04-06T12:16:06;99061.84;;;17.12;27.58
45467;BME280;31212;49.734;8.490;2023-04-06T12:18:33;99080.84;;;17.37;27.66
45467;BME280;31212;49.734;8.490;2023-04-06T12:20:59;99137.22;;;17.47;28.33
45467;BME280;31212;49.734;8.490;2023-04-06T12:23:26;99136.09;;;17.53;28.06
45467;BME280;31212;49.734;8.490;2023-04-06T12:25:52;99158.53;;;17.98;27.86
45467;BME280;31212;49.734;8.490;2023-04-06T12:28:19;99137.44;;;17.99;27.79
45467;BME280;31212;49.734;8.490;2023-04-06T12:30:50;99094.59;;;17.61;27.85
45467;BME280;31212;49.734;8.490;2023-04-06T12:33:16;99047.59;;;17.56;27.47
45467;BME280;31212;49.734;8.490;2023-04-06T12:35:43;99058.16;;;17.55;27.48
45467;BME280;31212;49.734;8.490;2023-04-06T12:38:09;99047.56;;;17.75;27.15
45467;BME280;31212;49.734;8.490;2023-04-06T12:40:37;99080.09;;;17.90;27.45
45467;BME280;31212;49.734;8.490;2023-04-06T12:43:05;99117.47;;;18.32;27.44
45467;BME280;31212;49.734;8.490;2023-04-06T12:45:31;99055.19;;;18.16;26.63
45467;BME280;31212;49.734;8.490;2023-04-06T12:47:59;99025.81;;;18.08;26.56
45467;BME280;31212;49.734;8.490;2023-04-06T12:50:26;98989.06;;;18.08;26.34
45467;BME280;31212;49.734;8.490;2023-04-06T12:52:52;99022.53;;;18.05;26.39
45467;BME280;31212;49.734;8.490;2023-04-06T12:55:19;99028.06;;;17.62;27.16
45467;BME280;31212;49.734;8.490;2023-04-06T12:57:46;99091.25;;;17.38;27.71
45467;BME280;31212;49.734;8.490;2023-04-06T13:00:14;99061.69;;;17.54;27.61
45467;BME280;31212;49.734;8.490;2023-04-06T13:02:40;99035.13;;;17.04;27.99
45467;BME280;31212;49.734;8.490;2023-04-06T13:05:13;99038.69;;;17.22;27.67
45467;BME280;31212;49.734;8.490;2023-04-06T13:07:43;99020.88;;;17.10;27.35